Time;durP1;ratioP1;P1;durP2;ratioP2;P2;SDS_P1;SDS_P2;PMS_P1;PMS_P2;Temp;Humidity;BMP_temperature;BMP_pressure;BME280_temperature;BME280_humidity;BME280_pressure;Samples;Min_cycle;Max_cycle;Signal;HPM_P1;HPM_P2
2023/11/09 00:01:30;;;;;;;8.75;4.43;;;;;;;11.50;93.13;100299.75;6125107;23;20344;-82
2023/11/09 00:03:56;;;;;;;7.63;3.97;;;;;;;11.54;93.26;100300.97;6151595;23;20005;-81
2023/11/09 00:06:22;;;;;;;8.27;4.63;;;;;;;11.41;93.95;100282.41;6151516;23;20002;-83
2023/11/09 00:08:48;;;;;;;9.85;4.85;;;;;;;11.39;93.03;100287.13;6151393;23;20012;-84
2023/11/09 00:11:14;;;;;;;8.27;4.75;;;;;;;11.53;92.51;100309.22;6152081;23;20008;-81
2023/11/09 00:13:39;;;;;;;7.88;5.18;;;;;;;11.56;91.46;100308.75;6125387;23;20005;-81
2023/11/09 00:16:06;;;;;;;9.45;4.65;;;;;;;11.45;90.92;100315.63;6125555;23;20017;-82
2023/11/09 00:18:31;;;;;;;7.45;4.70;;;;;;;11.39;91.83;100324.53;6125133;23;20010;-81
2023/11/09 00:20:58;;;;;;;7.95;4.97;;;;;;;11.21;91.99;100307.41;6125758;23;20019;-82
2023/11/09 00:23:25;;;;;;;8.82;6.47;;;;;;;11.21;92.22;100330.59;6125332;23;20115;-81
2023/11/09 00:25:51;;;;;;;9.15;5.50;;;;;;;11.23;92.49;100329.34;6125586;23;20010;-81
2023/11/09 00:28:16;;;;;;;8.68;5.65;;;;;;;11.09;92.80;100319.81;6124690;23;20062;-80
2023/11/09 00:30:44;;;;;;;8.48;5.05;;;;;;;10.91;92.67;100303.69;6151609;23;20001;-81
2023/11/09 00:33:09;;;;;;;10.18;5.55;;;;;;;11.14;92.15;100317.31;6151088;23;20008;-81
2023/11/09 00:35:35;;;;;;;9.27;5.60;;;;;;;11.18;91.50;100320.38;6125262;23;20010;-81
2023/11/09 00:38:02;;;;;;;7.57;5.32;;;;;;;10.95;91.10;100283.56;6124807;23;20006;-82
2023/11/09 00:40:28;;;;;;;9.37;6.17;;;;;;;10.93;91.50;100317.66;6150695;23;20356;-81
2023/11/09 00:42:53;;;;;;;7.30;5.25;;;;;;;10.96;92.18;100314.56;6125164;23;20002;-81
2023/11/09 00:45:21;;;;;;;7.28;4.82;;;;;;;10.91;91.84;100311.72;6124186;23;20355;-82
2023/11/09 00:47:48;;;;;;;6.78;4.60;;;;;;;10.90;92.26;100334.09;6151026;23;20530;-81
2023/11/09 00:50:14;;;;;;;9.93;5.30;;;;;;;10.82;91.61;100309.28;6124026;23;20064;-81
2023/11/09 00:52:40;;;;;;;6.95;5.13;;;;;;;10.95;91.14;100328.94;6124612;23;20013;-81
2023/11/09 00:55:06;;;;;;;8.55;4.85;;;;;;;10.76;91.90;100312.81;6127533;23;20016;-82
2023/11/09 00:57:32;;;;;;;7.82;5.00;;;;;;;10.63;92.32;100310.25;6124725;23;20037;-81
2023/11/09 00:59:58;;;;;;;6.47;4.43;;;;;;;10.70;92.36;100340.34;6150311;23;20013;-82
2023/11/09 01:02:24;;;;;;;7.93;4.47;;;;;;;10.73;90.53;100331.13;6126770;23;20012;-82
2023/11/09 01:04:49;;;;;;;6.88;4.05;;;;;;;10.68;90.99;100350.41;6124833;23;20006;-82
2023/11/09 01:07:14;;;;;;;6.78;4.40;;;;;;;10.51;90.90;100334.09;6124819;23;20005;-81
2023/11/09 01:09:40;;;;;;;8.38;5.18;;;;;;;10.52;90.47;100324.22;6124508;23;20451;-81
2023/11/09 01:12:06;;;;;;;7.78;4.88;;;;;;;10.67;90.01;100330.13;6150844;23;20002;-81
2023/11/09 01:14:32;;;;;;;7.28;4.68;;;;;;;10.38;90.74;100315.47;6124172;23;20009;-81
2023/11/09 01:16:57;;;;;;;6.88;4.50;;;;;;;10.34;90.00;100323.09;6124624;23;20032;-85
2023/11/09 01:19:23;;;;;;;8.55;5.40;;;;;;;10.56;89.33;100341.44;6124305;23;20423;-81
2023/11/09 01:21:48;;;;;;;6.85;4.60;;;;;;;10.64;89.58;100346.53;6150691;23;20498;-80
2023/11/09 01:24:14;;;;;;;6.75;4.65;;;;;;;10.62;88.45;100332.59;6124660;23;20017;-82
2023/11/09 01:26:40;;;;;;;8.43;4.60;;;;;;;10.40;89.30;100322.25;6150368;23;20001;-80
2023/11/09 01:29:05;;;;;;;7.68;4.72;;;;;;;10.22;89.57;100316.75;6124741;23;20016;-81
2023/11/09 01:31:31;;;;;;;7.07;4.25;;;;;;;10.44;89.24;100354.59;6151034;23;20017;-81
2023/11/09 01:33:56;;;;;;;6.95;4.32;;;;;;;10.52;88.05;100357.06;6151197;23;20466;-80
2023/11/09 01:36:22;;;;;;;8.32;4.30;;;;;;;10.51;87.08;100344.75;6151104;23;20005;-80
2023/11/09 01:38:47;;;;;;;6.55;3.88;;;;;;;10.12;87.90;100311.03;6150578;23;20064;-82
2023/11/09 01:41:13;;;;;;;6.70;4.40;;;;;;;10.09;88.27;100330.09;6150538;23;20073;-81
2023/11/09 01:43:39;;;;;;;7.30;4.25;;;;;;;10.15;87.10;100315.94;6125018;23;20085;-82
2023/11/09 01:46:06;;;;;;;6.55;3.80;;;;;;;10.31;87.40;100360.00;6124857;23;20348;-80
2023/11/09 01:48:34;;;;;;;5.82;3.67;;;;;;;10.33;86.61;100360.59;6151167;23;20093;-81
2023/11/09 01:50:59;;;;;;;6.10;3.88;;;;;;;10.18;87.44;100355.50;6124861;23;20013;-80
2023/11/09 01:53:25;;;;;;;6.10;4.00;;;;;;;10.16;86.73;100333.56;6125482;23;20005;-80
2023/11/09 01:55:51;;;;;;;5.60;3.60;;;;;;;10.23;86.14;100348.50;6124929;23;20016;-81
2023/11/09 01:58:19;;;;;;;6.63;3.67;;;;;;;10.07;86.90;100343.63;6151360;23;20010;-81
2023/11/09 02:00:45;;;;;;;6.25;3.83;;;;;;;9.59;87.17;100304.78;6132120;23;20001;-82
2023/11/09 02:03:12;;;;;;;6.15;3.83;;;;;;;9.99;86.89;100347.34;6133429;23;20024;-81
2023/11/09 02:05:38;;;;;;;6.60;3.45;;;;;;;10.17;86.06;100369.84;6133617;23;20013;-81
2023/11/09 02:08:04;;;;;;;4.65;3.20;;;;;;;10.11;85.19;100347.50;6134981;23;20037;-81
2023/11/09 02:10:33;;;;;;;7.70;3.00;;;;;;;10.02;85.29;100356.75;6162449;23;20012;-80
2023/11/09 02:12:59;;;;;;;5.32;2.95;;;;;;;9.86;85.74;100368.66;6137347;23;20423;-81
2023/11/09 02:15:25;;;;;;;5.93;3.15;;;;;;;9.90;85.00;100340.59;6132505;23;20435;-82
2023/11/09 02:17:53;;;;;;;5.80;2.92;;;;;;;9.74;84.60;100322.38;6128777;23;20001;-81
2023/11/09 02:20:19;;;;;;;;;;;;;;;10.03;83.71;100363.72;6155175;23;20006;-81
2023/11/09 02:22:46;;;;;;;4.40;2.70;;;;;;;9.81;84.45;100345.31;6128787;23;19900;-81
2023/11/09 02:25:12;;;;;;;5.10;2.65;;;;;;;9.74;84.38;100341.00;6128969;23;20002;-82
2023/11/09 02:27:38;;;;;;;4.03;2.40;;;;;;;9.75;83.01;100350.66;6127857;23;20033;-80
2023/11/09 02:30:04;;;;;;;4.57;2.78;;;;;;;9.80;84.44;100372.97;6153516;23;20013;-81
2023/11/09 02:32:30;;;;;;;4.03;2.45;;;;;;;9.83;83.33;100369.91;6153432;23;20416;-80
2023/11/09 02:34:56;;;;;;;5.63;3.00;;;;;;;9.74;82.99;100364.97;6126456;23;20006;-81
2023/11/09 02:37:23;;;;;;;4.43;2.75;;;;;;;9.55;83.08;100351.47;6152215;23;20029;-82
2023/11/09 02:39:53;;;;;;;3.05;1.95;;;;;;;9.79;82.77;100392.66;6125401;23;20056;-81
2023/11/09 02:42:20;;;;;;;3.90;2.60;;;;;;;9.57;83.20;100365.41;6124980;23;20033;-81
2023/11/09 02:44:46;;;;;;;5.40;2.97;;;;;;;9.57;84.38;100392.03;6125548;23;20005;-81
2023/11/09 02:47:12;;;;;;;3.78;2.63;;;;;;;9.54;83.96;100379.13;6125172;23;20020;-83
2023/11/09 02:49:38;;;;;;;5.32;3.28;;;;;;;9.27;84.56;100358.81;6125220;23;20104;-81
2023/11/09 02:52:05;;;;;;;5.18;2.80;;;;;;;9.43;84.55;100379.72;6151444;23;20479;-81
2023/11/09 02:54:31;;;;;;;5.97;2.80;;;;;;;9.61;84.15;100413.75;6150796;23;20001;-80
2023/11/09 02:56:57;;;;;;;4.85;3.10;;;;;;;9.42;84.25;100394.06;6124998;23;20016;-81
2023/11/09 02:59:22;;;;;;;5.18;3.15;;;;;;;9.54;84.03;100399.59;6151189;23;20463;-81
2023/11/09 03:01:47;;;;;;;5.18;3.05;;;;;;;9.49;85.08;100402.88;6124618;23;20020;-79
2023/11/09 03:04:13;;;;;;;4.75;3.00;;;;;;;9.50;83.49;100391.22;6124539;23;20072;-81
2023/11/09 03:06:38;;;;;;;5.00;3.00;;;;;;;9.52;83.28;100412.28;6150464;23;20029;-81
2023/11/09 03:09:04;;;;;;;4.72;2.88;;;;;;;9.39;84.93;100429.06;6124658;23;20021;-81
2023/11/09 03:11:30;;;;;;;5.63;2.65;;;;;;;9.58;83.74;100433.63;6150696;23;20017;-81
2023/11/09 03:13:56;;;;;;;3.83;2.42;;;;;;;9.36;84.59;100413.53;6124816;23;20014;-80
2023/11/09 03:16:21;;;;;;;5.68;2.50;;;;;;;9.49;83.40;100432.16;6150198;23;20340;-81
2023/11/09 03:18:48;;;;;;;5.93;2.78;;;;;;;9.43;84.09;100440.94;6124543;23;20043;-81
2023/11/09 03:21:13;;;;;;;3.47;2.22;;;;;;;9.22;83.97;100421.47;6124601;23;20005;-82
2023/11/09 03:23:39;;;;;;;4.78;2.85;;;;;;;8.73;86.10;100379.16;6124773;23;20024;-81
2023/11/09 03:26:07;;;;;;;5.03;2.83;;;;;;;9.14;85.74;100424.31;6150578;23;20096;-81
2023/11/09 03:28:33;;;;;;;4.82;2.70;;;;;;;9.09;84.38;100421.41;6150496;23;20009;-81
2023/11/09 03:31:03;;;;;;;3.88;2.65;;;;;;;9.08;84.38;100435.75;6125042;23;20002;-81
2023/11/09 03:33:29;;;;;;;4.38;2.60;;;;;;;9.33;84.25;100449.31;6124832;23;20095;-81
2023/11/09 03:35:54;;;;;;;3.20;2.38;;;;;;;9.01;84.65;100432.22;6124827;23;20032;-80
2023/11/09 03:38:19;;;;;;;5.28;2.75;;;;;;;9.04;86.12;100451.28;6151236;23;20010;-81
2023/11/09 03:40:45;;;;;;;6.35;2.72;;;;;;;8.98;85.17;100424.66;6126179;23;20016;-80
2023/11/09 03:43:10;;;;;;;5.30;2.92;;;;;;;8.93;84.62;100429.75;6126321;23;20076;-81
2023/11/09 03:45:36;;;;;;;3.42;1.92;;;;;;;8.84;85.47;100429.91;6126804;23;20083;-80
2023/11/09 03:48:01;;;;;;;4.57;2.70;;;;;;;8.94;84.88;100428.75;6126449;23;20415;-80
2023/11/09 03:50:27;;;;;;;3.30;2.30;;;;;;;8.85;85.09;100420.13;6121389;23;20017;-80
2023/11/09 03:52:53;;;;;;;4.47;2.40;;;;;;;8.78;84.96;100427.25;6123258;23;20006;-80
2023/11/09 03:55:18;;;;;;;3.95;2.42;;;;;;;8.90;85.08;100443.47;6121087;23;20476;-81
2023/11/09 03:57:44;;;;;;;3.45;2.22;;;;;;;8.60;85.61;100423.28;6121626;23;20016;-81
2023/11/09 04:00:13;;;;;;;3.08;2.17;;;;;;;8.69;85.94;100460.34;6121285;23;20016;-80
2023/11/09 04:02:42;;;;;;;4.13;2.40;;;;;;;8.62;85.63;100439.03;6121178;23;20085;-80
2023/11/09 04:05:11;;;;;;;4.40;2.40;;;;;;;8.79;85.65;100450.19;6120748;23;20021;-79
2023/11/09 04:07:44;;;;;;;4.97;2.63;;;;;;;8.82;84.53;100466.53;6122983;23;20009;-80
2023/11/09 04:10:12;;;;;;;5.05;2.70;;;;;;;8.73;85.34;100474.91;6122191;23;20013;-81
2023/11/09 04:12:38;;;;;;;5.93;2.85;;;;;;;8.86;84.24;100482.91;6122272;23;20033;-81
2023/11/09 04:15:04;;;;;;;3.75;2.70;;;;;;;8.75;83.77;100459.56;6122755;23;20015;-82
2023/11/09 04:17:33;;;;;;;5.72;2.72;;;;;;;8.71;84.75;100485.72;6121350;23;20115;-81
2023/11/09 04:20:04;;;;;;;4.43;2.80;;;;;;;8.74;85.12;100487.16;6121100;23;20010;-83
2023/11/09 04:22:30;;;;;;;5.72;2.63;;;;;;;8.67;85.36;100475.69;6120651;23;20057;-80
2023/11/09 04:24:56;;;;;;;3.92;2.67;;;;;;;8.79;84.37;100484.75;6122423;23;20017;-83
2023/11/09 04:27:21;;;;;;;4.72;2.70;;;;;;;8.78;83.47;100483.09;6120280;23;20010;-81
2023/11/09 04:29:47;;;;;;;4.70;2.75;;;;;;;8.69;84.19;100489.59;6120513;23;20045;-80
2023/11/09 04:32:13;;;;;;;4.60;2.72;;;;;;;8.63;85.20;100491.19;6120525;23;20010;-80
2023/11/09 04:34:44;;;;;;;4.75;2.90;;;;;;;8.57;85.41;100491.97;6120932;23;20455;-82
2023/11/09 04:37:12;;;;;;;5.95;2.83;;;;;;;8.57;85.80;100497.28;6122174;23;20043;-81
2023/11/09 04:39:41;;;;;;;5.32;2.85;;;;;;;8.73;83.59;100478.38;6120314;23;20006;-81
2023/11/09 04:42:08;;;;;;;4.75;2.88;;;;;;;8.49;84.71;100484.16;6121825;23;20068;-81
2023/11/09 04:44:36;;;;;;;5.18;2.70;;;;;;;8.72;83.95;100500.63;6122113;23;20009;-80
2023/11/09 04:47:08;;;;;;;6.28;3.08;;;;;;;8.36;85.46;100480.38;6120720;23;20032;-81
2023/11/09 04:49:45;;;;;;;4.60;2.95;;;;;;;8.44;85.46;100488.22;6139825;23;20013;-81
2023/11/09 04:52:13;;;;;;;6.22;3.30;;;;;;;8.61;85.67;100511.84;6125019;23;20010;-82
2023/11/09 04:55:07;;;;;;;6.40;3.13;;;;;;;8.39;86.53;100506.53;6151691;23;20005;-82
2023/11/09 05:08:39;;;;;;;4.90;2.40;;;;;;;7.52;93.53;100531.50;6151370;23;20017;-80
2023/11/09 05:11:06;;;;;;;4.70;2.90;;;;;;;7.61;93.08;100537.50;6151507;23;20001;-80
2023/11/09 05:13:31;;;;;;;5.85;3.13;;;;;;;7.71;92.59;100545.19;6151523;23;20005;-80
2023/11/09 05:15:57;;;;;;;5.80;2.55;;;;;;;7.78;92.58;100561.97;6125287;23;20092;-80
2023/11/09 05:18:22;;;;;;;4.35;2.63;;;;;;;7.64;92.47;100530.00;6125140;23;20052;-82
2023/11/09 05:20:49;;;;;;;5.75;3.00;;;;;;;7.75;93.29;100562.38;6125049;23;20014;-81
2023/11/09 05:23:14;;;;;;;5.70;2.97;;;;;;;7.71;93.83;100545.19;6125078;23;20345;-80
2023/11/09 05:25:41;;;;;;;5.75;3.17;;;;;;;7.89;91.56;100536.78;6124958;23;20002;-80
2023/11/09 05:28:07;;;;;;;6.47;3.47;;;;;;;7.85;91.73;100549.63;6150482;23;20499;-81
2023/11/09 05:30:33;;;;;;;7.28;3.78;;;;;;;8.13;90.37;100560.31;6151052;23;20005;-81
2023/11/09 05:32:58;;;;;;;5.15;3.20;;;;;;;8.06;91.25;100585.97;6150614;23;20634;-80
2023/11/09 05:35:24;;;;;;;5.95;3.80;;;;;;;7.91;91.70;100567.44;6124685;23;20043;-80
2023/11/09 05:37:49;;;;;;;7.00;4.47;;;;;;;7.86;92.05;100569.81;6124690;23;20006;-81
2023/11/09 05:40:15;;;;;;;10.15;5.57;;;;;;;7.88;91.59;100578.44;6124742;23;20036;-81
2023/11/09 05:42:42;;;;;;;7.60;5.70;;;;;;;7.72;93.60;100586.63;6150673;23;20017;-82
2023/11/09 05:45:09;;;;;;;5.00;4.25;;;;;;;7.55;92.77;100568.28;6124486;23;20530;-82
2023/11/09 05:47:35;;;;;;;7.30;3.88;;;;;;;7.76;91.88;100593.22;6151050;23;20456;-81
2023/11/09 05:50:01;;;;;;;8.07;5.57;;;;;;;7.83;91.90;100607.41;6124656;23;20021;-82
2023/11/09 05:52:26;;;;;;;7.55;5.20;;;;;;;8.01;93.39;100615.75;6124631;23;20380;-81
2023/11/09 05:54:52;;;;;;;12.43;6.15;;;;;;;7.76;93.22;100596.69;6124216;23;20001;-81
2023/11/09 05:57:17;;;;;;;9.32;5.50;;;;;;;7.76;95.21;100609.13;6124715;23;20459;-81
2023/11/09 05:59:43;;;;;;;6.75;4.47;;;;;;;7.54;96.64;100601.16;6124339;23;20005;-82
2023/11/09 06:02:11;;;;;;;6.43;4.25;;;;;;;7.41;97.44;100582.38;6124517;23;20044;-83
2023/11/09 06:04:37;;;;;;;7.25;5.03;;;;;;;7.92;96.34;100619.53;6150257;23;20010;-82
2023/11/09 06:07:03;;;;;;;7.00;4.43;;;;;;;7.88;94.63;100591.72;6124611;23;20033;-81
2023/11/09 06:09:29;;;;;;;9.00;4.53;;;;;;;8.24;92.68;100604.13;6125059;23;20451;-81
2023/11/09 06:11:56;;;;;;;8.25;4.60;;;;;;;8.63;90.67;100630.25;6124111;23;20067;-82
2023/11/09 06:14:23;;;;;;;8.07;4.85;;;;;;;8.72;89.61;100641.56;6123800;23;20064;-81
2023/11/09 06:16:49;;;;;;;6.95;4.57;;;;;;;8.93;87.63;100642.53;6149880;23;20001;-81
2023/11/09 06:19:14;;;;;;;7.60;4.30;;;;;;;9.07;87.26;100652.25;6123695;23;20020;-82
2023/11/09 06:21:41;;;;;;;7.30;3.90;;;;;;;9.05;86.89;100627.69;6124078;23;20010;-82
2023/11/09 06:24:07;;;;;;;5.63;3.30;;;;;;;9.44;86.12;100647.59;6150169;23;20352;-81
2023/11/09 06:26:34;;;;;;;5.63;4.03;;;;;;;9.39;84.04;100631.38;6124120;23;20432;-80
2023/11/09 06:28:59;;;;;;;5.07;3.38;;;;;;;9.29;84.71;100601.63;6123978;23;20034;-81
2023/11/09 06:31:26;;;;;;;5.97;3.63;;;;;;;9.63;83.99;100643.38;6124106;23;20129;-82
2023/11/09 06:33:55;;;;;;;6.47;3.40;;;;;;;10.03;81.57;100647.00;6123761;23;20384;-82
2023/11/09 06:36:22;;;;;;;5.47;3.25;;;;;;;9.95;79.79;100639.19;6149919;23;20088;-80
2023/11/09 06:38:48;;;;;;;5.55;3.58;;;;;;;10.25;78.11;100671.63;6150069;23;20006;-82
2023/11/09 06:41:14;;;;;;;5.57;3.50;;;;;;;10.15;78.95;100649.88;6124261;23;20206;-81
2023/11/09 06:43:40;;;;;;;5.97;3.35;;;;;;;10.20;77.98;100649.31;6149723;23;20009;-82
2023/11/09 06:46:07;;;;;;;6.10;3.65;;;;;;;10.21;77.50;100622.41;6123610;23;20012;-82
2023/11/09 06:48:32;;;;;;;5.20;3.33;;;;;;;10.61;77.69;100643.84;6123800;23;20349;-82
2023/11/09 06:50:58;;;;;;;6.30;3.38;;;;;;;10.76;79.05;100651.63;6123975;23;20129;-81
2023/11/09 06:53:24;;;;;;;5.13;3.50;;;;;;;10.75;79.66;100644.66;6149852;23;20428;-82
2023/11/09 06:55:51;;;;;;;9.82;4.20;;;;;;;10.81;80.82;100664.38;6123934;23;20016;-82
2023/11/09 06:58:17;;;;;;;5.53;3.60;;;;;;;10.97;79.62;100652.44;6124128;23;20093;-83
2023/11/09 07:00:43;;;;;;;6.20;3.65;;;;;;;10.95;79.15;100652.66;6124392;23;20093;-82
2023/11/09 07:03:09;;;;;;;5.47;3.45;;;;;;;11.03;78.16;100660.44;6123839;23;20474;-82
2023/11/09 07:05:38;;;;;;;6.50;3.40;;;;;;;11.05;77.75;100638.88;6123621;23;20104;-81
2023/11/09 07:08:04;;;;;;;7.15;3.78;;;;;;;11.20;75.83;100647.47;6124151;23;20009;-81
2023/11/09 07:10:29;;;;;;;5.57;3.60;;;;;;;11.26;75.39;100635.97;6123907;23;20092;-81
2023/11/09 07:12:56;;;;;;;5.93;3.70;;;;;;;11.58;75.03;100665.44;6123669;23;20024;-83
2023/11/09 07:15:26;;;;;;;6.63;4.10;;;;;;;11.71;74.62;100669.09;6151661;23;20435;-84
2023/11/09 07:17:53;;;;;;;7.57;3.67;;;;;;;11.51;75.12;100653.97;6126687;23;20075;-82
2023/11/09 07:20:19;;;;;;;7.03;4.97;;;;;;;11.59;75.10;100639.56;6126336;23;20012;-83
2023/11/09 07:22:46;;;;;;;6.40;3.80;;;;;;;11.89;72.54;100661.25;6125758;23;20016;-83
2023/11/09 07:25:14;;;;;;;5.60;3.30;;;;;;;11.96;70.50;100656.69;6126706;23;20012;-85
2023/11/09 07:27:40;;;;;;;6.10;3.80;;;;;;;12.18;68.26;100677.78;6127224;23;20017;-80
2023/11/09 07:30:07;;;;;;;6.18;3.15;;;;;;;11.99;68.29;100666.97;6127252;23;20087;-82
2023/11/09 07:32:32;;;;;;;7.22;5.03;;;;;;;12.25;71.87;100674.00;6126604;23;20009;-82
2023/11/09 07:34:57;;;;;;;7.50;3.88;;;;;;;12.52;69.45;100670.34;6125978;23;20010;-82
2023/11/09 07:37:23;;;;;;;4.88;3.17;;;;;;;12.59;68.39;100665.78;6126512;23;20044;-82
2023/11/09 07:39:48;;;;;;;5.18;3.22;;;;;;;12.63;64.47;100657.09;6152813;23;20001;-83
2023/11/09 07:42:14;;;;;;;4.78;2.85;;;;;;;12.59;63.63;100665.78;6126174;23;20163;-81
2023/11/09 07:44:39;;;;;;;7.30;3.60;;;;;;;12.34;66.36;100649.69;6152191;23;20006;-82
2023/11/09 07:47:05;;;;;;;5.45;3.40;;;;;;;12.34;67.13;100663.91;6125875;23;20086;-82
2023/11/09 07:49:30;;;;;;;8.00;4.80;;;;;;;12.32;65.47;100657.94;6124489;23;20356;-81
2023/11/09 07:51:58;;;;;;;4.90;3.58;;;;;;;12.55;66.56;100656.53;6124910;23;20005;-81
2023/11/09 07:54:24;;;;;;;6.20;3.53;;;;;;;12.75;64.64;100657.22;6123881;23;20010;-83
2023/11/09 07:56:50;;;;;;;6.28;3.53;;;;;;;12.96;63.46;100677.41;6125029;23;20005;-81
2023/11/09 07:59:16;;;;;;;5.85;3.33;;;;;;;12.91;63.21;100668.38;6125018;23;20009;-86
2023/11/09 08:01:43;;;;;;;5.35;3.30;;;;;;;13.00;61.61;100661.72;6125771;23;20067;-81
2023/11/09 08:04:09;;;;;;;5.70;3.78;;;;;;;12.96;63.51;100663.22;6149850;23;20491;-82
2023/11/09 08:06:37;;;;;;;5.22;3.60;;;;;;;13.16;62.33;100655.00;6124233;23;20355;-82
2023/11/09 08:09:05;;;;;;;7.13;3.78;;;;;;;13.31;63.60;100670.72;6123744;23;20037;-81
2023/11/09 08:11:30;;;;;;;;;;;;;;;13.55;63.68;100691.28;6150055;23;20747;-81
2023/11/09 08:13:57;;;;;;;6.07;3.70;;;;;;;13.66;64.59;100687.84;6149026;23;19940;-82
2023/11/09 08:16:23;;;;;;;5.22;3.72;;;;;;;13.58;63.72;100661.34;6123853;23;20694;-83
2023/11/09 08:18:48;;;;;;;5.75;3.67;;;;;;;13.96;60.22;100687.09;6123594;23;20010;-83
2023/11/09 08:21:14;;;;;;;5.65;3.22;;;;;;;14.13;58.18;100686.44;6124571;23;20016;-83
2023/11/09 08:23:40;;;;;;;6.90;3.30;;;;;;;14.03;57.49;100695.84;6125045;23;20017;-81
2023/11/09 08:26:06;;;;;;;8.13;4.07;;;;;;;13.92;60.39;100664.44;6123657;23;20404;-83
2023/11/09 08:28:33;;;;;;;5.88;3.85;;;;;;;14.01;61.23;100675.66;6124777;23;20088;-83
2023/11/09 08:30:58;;;;;;;5.50;3.85;;;;;;;13.99;62.69;100667.84;6124953;23;20148;-82
2023/11/09 08:33:24;;;;;;;7.07;3.67;;;;;;;14.38;63.40;100695.16;6124848;23;20452;-82
2023/11/09 08:35:53;;;;;;;6.03;3.55;;;;;;;14.38;60.77;100686.31;6124570;23;20013;-83
2023/11/09 08:38:22;;;;;;;5.25;3.00;;;;;;;14.66;59.23;100691.88;6124728;23;20002;-83
2023/11/09 08:40:51;;;;;;;4.55;3.10;;;;;;;14.78;57.26;100693.78;6151116;23;20408;-83
2023/11/09 08:43:17;;;;;;;5.63;2.78;;;;;;;14.75;52.72;100705.81;6124764;23;20408;-83
2023/11/09 08:45:43;;;;;;;3.03;2.08;;;;;;;14.82;51.94;100708.38;6124662;23;20507;-83
2023/11/09 08:48:10;;;;;;;4.25;2.70;;;;;;;14.94;53.40;100697.66;6124185;23;20017;-83
2023/11/09 08:50:38;;;;;;;5.60;3.50;;;;;;;15.25;58.14;100707.25;6124642;23;20040;-82
2023/11/09 08:53:04;;;;;;;4.13;2.80;;;;;;;15.53;55.63;100709.22;6124110;23;20041;-83
2023/11/09 08:55:32;;;;;;;5.75;2.78;;;;;;;15.37;54.12;100707.25;6124408;23;20502;-82
2023/11/09 08:58:01;;;;;;;4.20;3.20;;;;;;;15.20;56.77;100688.31;6123858;23;20016;-83
2023/11/09 09:00:32;;;;;;;4.95;3.10;;;;;;;14.84;56.95;100682.94;6123848;23;20012;-83
2023/11/09 09:02:58;;;;;;;4.55;3.10;;;;;;;15.25;55.06;100704.56;6124292;23;20396;-83
2023/11/09 09:05:26;;;;;;;5.65;3.53;;;;;;;15.44;55.55;100689.94;6123880;23;20032;-83
2023/11/09 09:07:56;;;;;;;5.07;2.97;;;;;;;15.74;54.87;100707.81;6123608;23;20024;-84
2023/11/09 09:10:23;;;;;;;4.18;2.78;;;;;;;15.18;52.19;100688.56;6150375;23;20044;-82
2023/11/09 09:12:51;;;;;;;4.00;2.38;;;;;;;15.71;51.07;100702.84;6150204;23;20005;-83
2023/11/09 09:15:18;;;;;;;4.53;2.53;;;;;;;15.86;50.68;100684.38;6124182;23;20009;-84
2023/11/09 09:17:45;;;;;;;5.57;3.03;;;;;;;16.05;54.02;100706.53;6124078;23;20013;-82
2023/11/09 09:20:13;;;;;;;6.20;3.10;;;;;;;16.05;51.48;100703.84;6124214;23;20037;-83
2023/11/09 09:22:39;;;;;;;4.63;2.33;;;;;;;16.03;48.94;100699.78;6124353;23;20347;-83
2023/11/09 09:25:10;;;;;;;4.60;2.70;;;;;;;16.05;49.88;100695.78;6123663;23;20104;-82
2023/11/09 09:27:43;;;;;;;3.70;2.22;;;;;;;15.41;49.80;100676.16;6123773;23;20005;-83
2023/11/09 09:30:13;;;;;;;3.42;2.53;;;;;;;15.85;49.21;100688.16;6150162;23;20017;-83
2023/11/09 09:32:41;;;;;;;5.63;2.67;;;;;;;16.34;47.49;100698.47;6124037;23;20012;-83
2023/11/09 09:35:07;;;;;;;4.00;2.42;;;;;;;16.18;46.19;100683.94;6123463;23;20013;-83
2023/11/09 09:37:37;;;;;;;4.53;2.47;;;;;;;16.27;46.58;100673.59;6123425;23;20010;-82
2023/11/09 09:40:15;;;;;;;3.65;1.98;;;;;;;16.62;44.92;100691.41;6149484;23;20005;-82
2023/11/09 09:42:43;;;;;;;4.40;2.30;;;;;;;16.48;45.08;100697.09;6149688;23;20408;-83
2023/11/09 09:45:13;;;;;;;4.93;2.63;;;;;;;16.78;44.20;100706.78;6123299;23;20014;-83
2023/11/09 09:47:45;;;;;;;6.03;2.30;;;;;;;17.03;42.70;100697.50;6123272;23;20001;-82
2023/11/09 09:50:11;;;;;;;4.82;2.20;;;;;;;17.24;42.06;100687.81;6148945;23;20521;-84
2023/11/09 09:52:38;;;;;;;2.42;1.80;;;;;;;17.42;39.91;100702.91;6123579;23;20109;-83
2023/11/09 09:55:07;;;;;;;3.08;1.83;;;;;;;17.33;39.87;100666.66;6123134;23;20014;-83
2023/11/09 09:57:34;;;;;;;3.40;1.88;;;;;;;17.29;38.62;100692.50;6123213;23;20427;-82
2023/11/09 10:00:01;;;;;;;4.28;1.42;;;;;;;17.75;37.82;100704.66;6123437;23;20032;-83
2023/11/09 10:02:31;;;;;;;2.75;1.60;;;;;;;17.61;36.93;100693.47;6149483;23;20009;-82
2023/11/09 10:04:57;;;;;;;2.50;1.30;;;;;;;17.89;37.51;100680.88;6123328;23;20005;-83
2023/11/09 10:07:22;;;;;;;5.47;2.58;;;;;;;17.67;38.00;100670.88;6123093;23;20586;-82
2023/11/09 10:09:52;;;;;;;5.07;2.40;;;;;;;17.57;38.68;100686.94;6123045;23;20519;-83
2023/11/09 10:12:18;;;;;;;6.50;2.63;;;;;;;17.39;38.72;100679.97;6149293;23;20408;-83
2023/11/09 10:14:43;;;;;;;6.72;3.20;;;;;;;16.73;39.91;100671.66;6123181;23;20476;-83
2023/11/09 10:17:11;;;;;;;3.95;1.85;;;;;;;17.12;39.82;100677.16;6148899;23;20012;-82
2023/11/09 10:19:43;;;;;;;3.03;1.65;;;;;;;17.41;39.75;100685.91;6149147;23;20355;-82
2023/11/09 10:22:09;;;;;;;12.77;2.17;;;;;;;17.50;36.06;100667.41;6123055;23;20018;-83
2023/11/09 10:24:37;;;;;;;5.50;2.40;;;;;;;17.50;35.74;100694.38;6148820;23;20015;-82
2023/11/09 10:27:06;;;;;;;5.90;2.90;;;;;;;17.91;35.94;100684.13;6122842;23;20013;-81
2023/11/09 10:29:32;;;;;;;4.70;1.95;;;;;;;17.47;37.23;100662.53;6122988;23;20361;-82
2023/11/09 10:32:00;;;;;;;4.68;1.83;;;;;;;17.86;34.84;100687.59;6149059;23;20443;-82
2023/11/09 10:34:26;;;;;;;9.60;3.00;;;;;;;18.09;35.40;100684.88;6149005;23;20099;-81
2023/11/09 10:36:56;;;;;;;2.72;1.30;;;;;;;17.99;33.96;100683.69;6122622;23;20013;-81
2023/11/09 10:39:24;;;;;;;4.38;1.20;;;;;;;18.34;33.18;100652.72;6122659;23;20317;-81
2023/11/09 10:41:52;;;;;;;2.28;1.23;;;;;;;18.37;32.77;100673.81;6123019;23;20077;-81
2023/11/09 10:44:22;;;;;;;;;;;;;;;18.95;32.66;100684.03;6149228;23;20028;-81
2023/11/09 10:46:55;;;;;;;3.08;1.15;;;;;;;19.37;33.39;100669.69;6148308;23;20488;-82
2023/11/09 10:49:26;;;;;;;2.25;1.08;;;;;;;19.11;31.57;100666.84;6123878;23;20035;-82
2023/11/09 10:51:56;;;;;;;1.27;1.00;;;;;;;19.50;32.13;100680.03;6125131;23;20013;-84
2023/11/09 10:54:27;;;;;;;2.75;1.00;;;;;;;19.30;31.70;100671.81;6125258;23;20013;-84
2023/11/09 10:56:57;;;;;;;9.77;5.13;;;;;;;19.68;31.01;100660.63;6124893;23;20006;-82
2023/11/09 10:59:25;;;;;;;2.72;1.30;;;;;;;19.61;29.68;100651.94;6124852;23;20040;-83
2023/11/09 11:01:59;;;;;;;1.95;1.00;;;;;;;20.01;29.88;100677.56;6125275;23;20009;-82
2023/11/09 11:04:26;;;;;;;2.97;1.33;;;;;;;20.17;30.07;100678.41;6125123;23;20010;-82
2023/11/09 11:06:56;;;;;;;6.22;1.10;;;;;;;20.13;30.05;100666.47;6124770;23;20009;-82
2023/11/09 11:09:28;;;;;;;2.45;1.45;;;;;;;19.58;29.70;100666.00;6124599;23;20012;-81
2023/11/09 11:11:58;;;;;;;3.22;0.90;;;;;;;19.10;34.22;100665.22;6151324;23;20029;-82
2023/11/09 11:14:26;;;;;;;1.77;1.17;;;;;;;19.48;30.78;100660.56;6151075;23;20081;-81
2023/11/09 11:17:14;;;;;;;2.70;1.38;;;;;;;19.43;31.59;100649.69;6124806;23;20013;-82
2023/11/09 11:20:17;;;;;;;2.20;0.80;;;;;;;20.14;29.75;100670.00;6150912;23;20363;-83
2023/11/09 11:22:48;;;;;;;1.67;0.80;;;;;;;20.65;29.03;100664.66;6151011;23;20040;-82
2023/11/09 11:25:28;;;;;;;1.95;0.90;;;;;;;20.81;27.50;100666.28;6125001;23;20010;-80
2023/11/09 11:28:01;;;;;;;2.78;0.90;;;;;;;20.75;27.96;100644.88;6150676;23;20005;-80
2023/11/09 11:30:36;;;;;;;1.00;0.70;;;;;;;21.51;28.37;100646.59;6124781;23;20351;-81
2023/11/09 11:33:08;;;;;;;0.90;0.68;;;;;;;21.56;27.12;100668.31;6150242;23;20002;-80
2023/11/09 11:35:43;;;;;;;2.08;1.00;;;;;;;21.22;26.49;100644.50;6150775;23;20459;-80
2023/11/09 11:38:21;;;;;;;1.98;1.00;;;;;;;21.05;27.71;100654.88;6149766;23;20351;-81
2023/11/09 11:40:50;;;;;;;2.03;0.80;;;;;;;21.60;27.35;100642.22;6150889;23;20016;-80